createdAt,value
2023-05-01T00:00:54.912Z,3.53
2023-05-01T00:03:22.051Z,3.38
2023-05-01T00:05:49.184Z,3.53
2023-05-01T00:08:16.304Z,3.33
2023-05-01T00:10:43.320Z,3.58
2023-05-01T00:13:11.503Z,3.20
2023-05-01T00:15:42.863Z,3.15
2023-05-01T00:18:09.769Z,3.63
2023-05-01T00:20:36.904Z,3.47
2023-05-01T00:23:03.646Z,3.53
2023-05-01T00:25:31.579Z,3.50
2023-05-01T00:28:00.143Z,3.22
2023-05-01T00:30:28.150Z,3.50
2023-05-01T00:32:55.214Z,3.60
2023-05-01T00:35:22.023Z,3.45
2023-05-01T00:37:50.721Z,3.58
2023-05-01T00:40:17.536Z,3.42
2023-05-01T00:42:44.485Z,3.60
2023-05-01T00:45:11.912Z,3.22
2023-05-01T00:47:39.159Z,3.88
2023-05-01T00:50:06.904Z,3.42
2023-05-01T00:52:34.200Z,3.53
2023-05-01T00:55:01.173Z,3.42
2023-05-01T00:57:29.137Z,3.30
2023-05-01T00:59:55.988Z,3.42
2023-05-01T01:02:24.884Z,3.35
2023-05-01T01:04:51.855Z,3.70
2023-05-01T01:07:51.676Z,3.60
2023-05-01T01:10:52.284Z,3.40
2023-05-01T01:13:40.500Z,3.42
2023-05-01T01:16:23.564Z,3.47
2023-05-01T01:19:11.045Z,3.33
2023-05-01T01:21:47.623Z,3.55
2023-05-01T01:24:27.260Z,3.72
2023-05-01T01:27:38.345Z,3.38
2023-05-01T01:30:24.111Z,4.03
2023-05-01T01:33:02.768Z,3.78
2023-05-01T01:35:32.826Z,3.80
2023-05-01T01:38:11.724Z,3.78
2023-05-01T01:40:48.780Z,3.42
2023-05-01T01:43:18.907Z,3.42
2023-05-01T01:45:58.244Z,3.67
2023-05-01T01:48:30.958Z,3.90
2023-05-01T01:50:59.434Z,4.20
2023-05-01T01:53:29.852Z,3.67
2023-05-01T01:56:01.284Z,3.80
2023-05-01T01:58:32.833Z,3.95
2023-05-01T02:01:00.125Z,4.00
2023-05-01T02:03:27.929Z,3.65
2023-05-01T02:05:59.879Z,3.80
2023-05-01T02:08:31.058Z,3.50
2023-05-01T02:11:02.097Z,3.92
2023-05-01T02:13:31.619Z,3.63
2023-05-01T02:16:03.665Z,4.05
2023-05-01T02:18:31.959Z,3.75
2023-05-01T02:21:01.081Z,3.67
2023-05-01T02:23:28.920Z,3.92
2023-05-01T02:25:57.998Z,3.63
2023-05-01T02:28:27.155Z,3.72
2023-05-01T02:30:54.093Z,4.03
2023-05-01T02:33:21.082Z,4.00
2023-05-01T02:35:47.995Z,4.28
2023-05-01T02:38:16.326Z,4.15
2023-05-01T02:40:47.357Z,4.03
2023-05-01T03:02:29.433Z,4.13
2023-05-01T03:04:56.589Z,4.10
2023-05-01T03:07:23.772Z,4.07
2023-05-01T03:09:50.678Z,4.20
2023-05-01T03:12:17.572Z,3.80
2023-05-01T03:14:44.505Z,3.50
2023-05-01T03:17:11.417Z,3.53
2023-05-01T03:19:38.214Z,3.50
2023-05-01T03:22:05.163Z,4.03
2023-05-01T03:24:31.988Z,3.80
2023-05-01T03:26:59.080Z,3.67
2023-05-01T03:29:28.840Z,3.92
2023-05-01T03:31:57.547Z,3.80
2023-05-01T03:34:24.503Z,3.95
2023-05-01T03:36:51.724Z,4.05
2023-05-01T03:39:19.237Z,3.80
2023-05-01T03:41:46.079Z,3.60
2023-05-01T03:44:12.847Z,4.03
2023-05-01T03:46:39.969Z,4.43
2023-05-01T03:49:07.727Z,4.40
2023-05-01T03:51:34.725Z,4.43
2023-05-01T03:54:01.582Z,4.40
2023-05-01T03:56:28.329Z,4.32
2023-05-01T03:58:55.056Z,4.20
2023-05-01T04:01:22.075Z,4.07
2023-05-01T04:03:49.059Z,4.18
2023-05-01T04:06:17.407Z,4.32
2023-05-01T04:08:44.591Z,4.00
2023-05-01T04:11:11.423Z,4.00
2023-05-01T04:13:38.155Z,4.40
2023-05-01T04:16:05.229Z,4.55
2023-05-01T04:18:33.332Z,4.40
2023-05-01T04:21:00.174Z,4.28
2023-05-01T04:23:27.064Z,4.07
2023-05-01T04:25:53.875Z,4.18
2023-05-01T04:28:20.641Z,4.32
2023-05-01T04:30:47.543Z,4.15
2023-05-01T04:33:14.391Z,4.63
2023-05-01T04:35:42.750Z,4.90
2023-05-01T04:38:12.605Z,5.30
2023-05-01T04:40:39.344Z,4.70
2023-05-01T04:43:06.158Z,4.30
2023-05-01T04:45:32.946Z,4.00
2023-05-01T04:47:59.890Z,4.30
2023-05-01T04:50:26.856Z,3.35
2023-05-01T04:52:53.983Z,3.65
2023-05-01T04:55:23.085Z,4.22
2023-05-01T04:57:50.006Z,4.53
2023-05-01T05:00:19.179Z,4.30
2023-05-01T05:02:46.642Z,4.45
2023-05-01T05:05:13.681Z,4.50
2023-05-01T05:07:40.727Z,4.72
2023-05-01T05:10:07.908Z,4.53
2023-05-01T05:12:34.721Z,4.63
2023-05-01T05:15:01.544Z,4.47
2023-05-01T05:17:28.268Z,4.75
2023-05-01T05:19:56.141Z,4.47
2023-05-01T05:22:23.774Z,4.13
2023-05-01T05:24:56.002Z,4.45
2023-05-01T05:27:22.843Z,4.15
2023-05-01T05:29:50.656Z,4.70
2023-05-01T05:32:17.470Z,4.22
2023-05-01T05:34:44.812Z,4.00
2023-05-01T05:37:11.870Z,3.88
2023-05-01T05:39:38.646Z,3.80
2023-05-01T05:42:05.564Z,4.22
2023-05-01T05:44:33.112Z,4.22
2023-05-01T05:46:59.897Z,4.65
2023-05-01T05:49:26.683Z,4.63
2023-05-01T05:51:53.936Z,4.68
2023-05-01T05:54:21.347Z,4.60
2023-05-01T05:56:48.148Z,4.72
2023-05-01T05:59:16.673Z,4.47
2023-05-01T06:01:44.359Z,4.55
2023-05-01T06:04:11.925Z,4.78
2023-05-01T06:06:40.466Z,4.57
2023-05-01T06:09:08.860Z,5.47
2023-05-01T06:11:38.555Z,5.95
2023-05-01T06:14:05.553Z,6.28
2023-05-01T06:16:32.763Z,5.63
2023-05-01T06:18:59.863Z,5.70
2023-05-01T06:21:26.764Z,5.97
2023-05-01T06:23:53.966Z,6.20
2023-05-01T06:26:21.829Z,6.00
2023-05-01T06:28:48.625Z,6.53
2023-05-01T06:31:15.996Z,5.50
2023-05-01T06:33:42.832Z,5.75
2023-05-01T06:36:09.739Z,5.70
2023-05-01T06:38:36.772Z,6.03
2023-05-01T06:41:05.839Z,5.40
2023-05-01T06:43:32.682Z,5.60
2023-05-01T06:45:59.654Z,5.43
2023-05-01T06:48:26.885Z,5.60
2023-05-01T06:50:53.829Z,6.00
2023-05-01T06:53:20.650Z,6.32
2023-05-01T06:55:47.538Z,6.00
2023-05-01T06:58:23.524Z,5.78
2023-05-01T07:00:52.572Z,5.65
2023-05-01T07:03:20.405Z,5.95
2023-05-01T07:05:47.474Z,5.63
2023-05-01T07:08:14.397Z,6.13
2023-05-01T07:10:42.199Z,5.10
2023-05-01T07:13:10.576Z,5.32
2023-05-01T07:15:37.880Z,5.70
2023-05-01T07:18:07.904Z,6.47
2023-05-01T07:20:35.008Z,5.82
2023-05-01T07:23:02.026Z,5.75
2023-05-01T07:25:29.145Z,5.63
2023-05-01T07:27:56.202Z,6.70
2023-05-01T07:30:24.446Z,5.90
2023-05-01T07:32:51.460Z,5.93
2023-05-01T07:35:18.698Z,6.55
2023-05-01T07:37:45.371Z,6.25
2023-05-01T07:40:12.477Z,5.85
2023-05-01T07:42:39.294Z,6.05
2023-05-01T07:45:07.491Z,6.40
2023-05-01T07:47:34.620Z,6.28
2023-05-01T07:50:01.559Z,6.10
2023-05-01T07:52:28.538Z,5.97
2023-05-01T07:54:55.400Z,5.90
2023-05-01T07:57:23.398Z,5.72
2023-05-01T07:59:57.400Z,6.13
2023-05-01T08:02:24.541Z,6.20
2023-05-01T08:04:51.854Z,6.55
2023-05-01T08:07:19.037Z,6.28
2023-05-01T08:09:46.822Z,6.15
2023-05-01T08:12:14.098Z,5.70
2023-05-01T08:14:40.780Z,5.80
2023-05-01T08:17:07.648Z,5.90
2023-05-01T08:19:35.062Z,6.32
2023-05-01T08:22:02.224Z,6.03
2023-05-01T08:24:30.054Z,6.70
2023-05-01T08:26:56.975Z,5.85
2023-05-01T08:29:23.930Z,6.32
2023-05-01T08:31:50.868Z,6.28
2023-05-01T08:34:18.000Z,5.97
2023-05-01T08:36:44.912Z,7.00
2023-05-01T08:39:12.143Z,6.97
2023-05-01T08:41:40.066Z,6.78
2023-05-01T08:44:09.372Z,7.00
2023-05-01T08:46:46.823Z,6.60
2023-05-01T08:49:16.933Z,6.57
2023-05-01T08:51:50.210Z,6.07
2023-05-01T08:54:19.820Z,6.57
2023-05-01T08:56:52.227Z,6.68
2023-05-01T08:59:20.772Z,6.40
2023-05-01T09:01:48.616Z,6.72
2023-05-01T09:04:17.456Z,6.40
2023-05-01T09:06:45.377Z,6.68
2023-05-01T09:09:12.203Z,6.47
2023-05-01T09:11:39.754Z,14.30
2023-05-01T09:14:08.930Z,7.25
2023-05-01T09:16:36.197Z,7.10
2023-05-01T09:19:03.549Z,6.65
2023-05-01T09:21:32.122Z,7.05
2023-05-01T09:23:59.083Z,6.90
2023-05-01T09:26:26.917Z,6.47
2023-05-01T09:28:58.162Z,7.97
2023-05-01T09:31:29.876Z,6.03
2023-05-01T09:34:02.021Z,6.60
2023-05-01T09:36:33.622Z,6.43
2023-05-01T09:39:01.708Z,6.75
2023-05-01T09:41:31.681Z,6.95
2023-05-01T09:43:58.980Z,6.30
2023-05-01T09:46:27.084Z,6.78
2023-05-01T09:48:58.825Z,6.32
2023-05-01T09:51:35.576Z,7.60
2023-05-01T09:54:06.872Z,6.00
2023-05-01T09:56:45.957Z,5.37
2023-05-01T09:59:18.190Z,5.50
2023-05-01T10:01:47.066Z,5.10
2023-05-01T10:04:14.564Z,5.60
2023-05-01T10:06:41.650Z,5.30
2023-05-01T10:09:17.037Z,5.50
2023-05-01T10:11:55.771Z,5.55
2023-05-01T10:14:24.204Z,5.28
2023-05-01T10:16:53.047Z,5.72
2023-05-01T10:19:20.569Z,5.38
2023-05-01T10:21:47.358Z,5.53
2023-05-01T10:24:16.324Z,5.50
2023-05-01T10:26:46.409Z,5.30
2023-05-01T10:29:13.473Z,5.63
2023-05-01T10:31:42.537Z,5.05
2023-05-01T10:34:11.858Z,5.45
2023-05-01T10:36:45.148Z,5.30
2023-05-01T10:39:34.880Z,5.20
2023-05-01T10:42:06.743Z,5.40
2023-05-01T10:44:37.586Z,5.53
2023-05-01T10:47:31.090Z,5.18
2023-05-01T10:50:12.145Z,5.00
2023-05-01T10:53:09.999Z,5.32
2023-05-01T10:55:45.023Z,4.80
2023-05-01T10:58:14.085Z,4.18
2023-05-01T11:00:41.280Z,4.25
2023-05-01T11:03:23.514Z,4.45
2023-05-01T11:06:05.318Z,4.57
2023-05-01T11:08:34.796Z,4.47
2023-05-01T11:11:19.874Z,4.78
2023-05-01T11:14:08.934Z,3.92
2023-05-01T11:16:39.419Z,4.88
2023-05-01T11:19:23.169Z,4.50
2023-05-01T11:21:50.803Z,4.28
2023-05-01T11:24:20.671Z,4.80
2023-05-01T11:26:48.619Z,4.82
2023-05-01T11:29:15.572Z,4.88
2023-05-01T11:31:42.387Z,4.70
2023-05-01T11:34:09.867Z,4.80
2023-05-01T11:36:55.560Z,4.50
2023-05-01T11:39:22.877Z,4.65
2023-05-01T11:41:49.652Z,4.40
2023-05-01T11:44:18.261Z,3.78
2023-05-01T11:46:45.282Z,3.75
2023-05-01T11:49:12.365Z,3.70
2023-05-01T11:51:39.409Z,3.78
2023-05-01T11:54:09.537Z,3.85
2023-05-01T11:56:37.859Z,3.85
2023-05-01T11:59:20.173Z,3.83
2023-05-01T12:01:47.585Z,3.60
2023-05-01T12:04:31.693Z,4.28
2023-05-01T12:06:59.421Z,5.30
2023-05-01T12:09:27.528Z,5.68
2023-05-01T12:11:54.782Z,4.60
2023-05-01T12:14:22.151Z,4.70
2023-05-01T12:16:50.173Z,4.40
2023-05-01T12:19:18.464Z,4.85
2023-05-01T12:21:45.730Z,4.32
2023-05-01T12:24:17.942Z,5.70
2023-05-01T12:26:59.537Z,7.00
2023-05-01T12:29:26.427Z,7.15
2023-05-01T12:31:53.295Z,7.40
2023-05-01T12:34:30.923Z,5.88
2023-05-01T12:36:58.012Z,7.93
2023-05-01T12:39:24.933Z,7.65
2023-05-01T12:41:52.305Z,5.75
2023-05-01T12:44:27.479Z,6.32
2023-05-01T12:47:04.940Z,6.72
2023-05-01T12:49:32.666Z,7.78
2023-05-01T12:52:01.341Z,6.55
2023-05-01T12:54:39.535Z,6.60
2023-05-01T12:57:16.924Z,6.80
2023-05-01T12:59:46.910Z,6.90
2023-05-01T13:02:17.167Z,7.03
2023-05-01T13:04:44.780Z,6.90
2023-05-01T13:07:20.648Z,7.10
2023-05-01T13:09:55.896Z,7.18
2023-05-01T13:12:23.659Z,7.03
2023-05-01T13:14:51.437Z,6.88
2023-05-01T13:17:32.134Z,6.95
2023-05-01T13:20:00.760Z,7.20
2023-05-01T13:22:32.943Z,6.70
2023-05-01T13:25:01.333Z,7.93
2023-05-01T13:27:29.030Z,6.63
2023-05-01T13:29:58.651Z,7.22
2023-05-01T13:32:26.924Z,6.97
2023-05-01T13:34:58.500Z,7.35
2023-05-01T13:37:25.360Z,6.45
2023-05-01T13:39:58.468Z,6.78
2023-05-01T13:42:25.500Z,6.47
2023-05-01T13:44:54.444Z,6.05
2023-05-01T13:47:25.810Z,5.82
2023-05-01T13:49:52.761Z,6.80
2023-05-01T13:52:21.004Z,7.53
2023-05-01T13:54:48.793Z,6.72
2023-05-01T13:57:17.524Z,6.43
2023-05-01T13:59:47.961Z,6.35
2023-05-01T14:02:29.044Z,6.88
2023-05-01T14:04:58.478Z,6.83
2023-05-01T14:07:30.379Z,6.60
2023-05-01T14:09:59.849Z,6.07
2023-05-01T14:12:32.300Z,6.72
2023-05-01T14:15:00.961Z,6.60
2023-05-01T14:17:33.620Z,5.85
2023-05-01T14:20:00.975Z,6.10
2023-05-01T14:22:46.031Z,6.45
2023-05-01T14:25:34.555Z,5.65
2023-05-01T14:28:07.865Z,5.80
2023-05-01T14:30:39.712Z,4.75
2023-05-01T14:33:08.538Z,4.43
2023-05-01T14:35:36.573Z,4.00
2023-05-01T14:38:14.888Z,4.00
2023-05-01T14:40:42.218Z,4.00
2023-05-01T14:43:13.061Z,4.00
2023-05-01T14:45:45.385Z,3.93
2023-05-01T14:48:36.227Z,3.80
2023-05-01T14:51:11.373Z,4.00
2023-05-01T14:53:43.023Z,4.50
2023-05-01T14:58:37.189Z,4.10
2023-05-01T15:01:04.545Z,4.53
2023-05-01T15:03:32.102Z,3.78
2023-05-01T15:05:59.245Z,4.60
2023-05-01T15:08:26.048Z,3.85
2023-05-01T15:10:53.356Z,4.60
2023-05-01T15:13:21.390Z,4.25
2023-05-01T15:15:50.039Z,4.10
2023-05-01T15:18:17.394Z,4.85
2023-05-01T15:20:44.410Z,4.28
2023-05-01T15:23:11.178Z,4.60
2023-05-01T15:25:37.892Z,5.07
2023-05-01T15:28:04.897Z,4.57
2023-05-01T15:30:31.800Z,5.57
2023-05-01T15:32:58.641Z,6.53
2023-05-01T15:35:26.257Z,5.90
2023-05-01T15:37:54.100Z,6.13
2023-05-01T15:40:21.018Z,6.03
2023-05-01T15:42:48.401Z,6.05
2023-05-01T15:45:15.208Z,6.07
2023-05-01T15:47:42.120Z,5.43
2023-05-01T15:50:12.426Z,6.03
2023-05-01T15:52:39.565Z,6.20
2023-05-01T15:55:07.183Z,5.32
2023-05-01T15:57:34.933Z,6.07
2023-05-01T16:00:02.176Z,5.50
2023-05-01T16:02:32.778Z,5.78
2023-05-01T16:05:00.289Z,6.32
2023-05-01T16:07:29.223Z,6.00
2023-05-01T16:09:57.349Z,6.38
2023-05-01T16:12:24.655Z,5.00
2023-05-01T16:14:52.679Z,4.80
2023-05-01T16:17:20.941Z,4.95
2023-05-01T16:19:48.637Z,5.60
2023-05-01T16:22:15.645Z,5.45
2023-05-01T16:24:44.876Z,5.93
2023-05-01T16:27:17.044Z,6.20
2023-05-01T16:29:44.324Z,7.07
2023-05-01T16:32:11.411Z,6.95
2023-05-01T16:34:40.029Z,6.10
2023-05-01T16:37:07.985Z,6.50
2023-05-01T16:39:38.464Z,5.45
2023-05-01T16:42:05.285Z,6.53
2023-05-01T16:44:37.870Z,5.80
2023-05-01T16:47:07.225Z,6.63
2023-05-01T16:49:36.383Z,7.30
2023-05-01T16:52:04.461Z,7.82
2023-05-01T16:54:35.726Z,10.32
2023-05-01T16:57:06.089Z,10.65
2023-05-01T16:59:33.119Z,11.68
2023-05-01T17:02:00.098Z,11.60
2023-05-01T17:04:27.498Z,11.93
2023-05-01T17:06:56.436Z,11.82
2023-05-01T17:09:23.433Z,12.40
2023-05-01T17:11:50.641Z,12.52
2023-05-01T17:14:17.315Z,12.57
2023-05-01T17:16:44.212Z,13.40
2023-05-01T17:19:11.082Z,12.77
2023-05-01T17:21:37.912Z,11.88
2023-05-01T17:24:04.852Z,11.68
2023-05-01T17:26:31.803Z,12.10
2023-05-01T17:28:59.663Z,11.85
2023-05-01T17:31:27.555Z,12.05
2023-05-01T17:33:54.385Z,11.02
2023-05-01T17:36:21.543Z,11.38
2023-05-01T17:38:48.748Z,11.18
2023-05-01T17:41:15.940Z,11.30
2023-05-01T17:43:44.787Z,11.43
2023-05-01T17:46:12.538Z,11.13
2023-05-01T17:48:41.533Z,10.93
2023-05-01T17:51:08.480Z,11.10
2023-05-01T17:54:24.424Z,11.15
2023-05-01T17:56:51.231Z,10.80
2023-05-01T17:59:18.029Z,11.10
2023-05-01T18:01:44.862Z,10.93
2023-05-01T18:04:12.829Z,10.80
2023-05-01T18:06:40.017Z,11.13
2023-05-01T18:09:07.688Z,12.98
2023-05-01T18:11:34.686Z,11.85
2023-05-01T18:14:01.815Z,11.98
2023-05-01T18:16:28.694Z,11.95
2023-05-01T18:18:58.065Z,12.68
2023-05-01T18:21:25.578Z,13.13
2023-05-01T18:23:52.323Z,13.93
2023-05-01T18:26:19.433Z,14.50
2023-05-01T18:28:46.289Z,13.70
2023-05-01T18:31:14.544Z,13.75
2023-05-01T18:33:41.329Z,13.63
2023-05-01T18:36:09.964Z,14.02
2023-05-01T18:38:36.968Z,14.85
2023-05-01T18:41:03.621Z,16.27
2023-05-01T18:43:31.843Z,16.23
2023-05-01T18:45:59.326Z,15.88
2023-05-01T18:48:26.525Z,17.17
2023-05-01T18:51:07.079Z,16.52
2023-05-01T18:53:35.047Z,18.98
2023-05-01T18:56:01.792Z,16.17
2023-05-01T18:58:28.916Z,18.08
2023-05-01T19:00:55.962Z,18.52
2023-05-01T19:03:22.812Z,18.75
2023-05-01T19:05:49.708Z,17.90
2023-05-01T19:08:16.714Z,18.73
2023-05-01T19:10:43.869Z,19.20
2023-05-01T19:13:12.031Z,17.40
2023-05-01T19:15:39.066Z,18.73
2023-05-01T19:18:05.955Z,19.98
2023-05-01T19:20:32.893Z,18.80
2023-05-01T19:22:59.850Z,18.70
2023-05-01T19:25:26.611Z,18.70
2023-05-01T19:27:53.408Z,17.88
2023-05-01T19:30:20.726Z,18.40
2023-05-01T19:32:47.669Z,16.30
2023-05-01T19:35:14.587Z,20.02
2023-05-01T19:37:41.789Z,18.35
2023-05-01T19:40:09.063Z,17.23
2023-05-01T19:42:36.537Z,20.85
2023-05-01T19:45:03.467Z,19.05
2023-05-01T19:47:30.364Z,20.48
2023-05-01T19:49:57.480Z,18.58
2023-05-01T19:52:24.799Z,19.02
2023-05-01T19:54:51.641Z,19.95
2023-05-01T19:57:18.571Z,19.50
2023-05-01T19:59:45.406Z,21.15
2023-05-01T20:02:12.259Z,20.65
2023-05-01T20:04:39.126Z,20.33
2023-05-01T20:07:06.596Z,21.92
2023-05-01T20:09:33.482Z,22.63
2023-05-01T20:12:00.489Z,22.92
2023-05-01T20:14:27.950Z,22.55
2023-05-01T20:16:55.308Z,23.60
2023-05-01T20:19:22.492Z,26.17
2023-05-01T20:21:49.208Z,24.73
2023-05-01T20:24:16.034Z,23.45
2023-05-01T20:26:42.985Z,24.25
2023-05-01T20:29:10.192Z,24.67
2023-05-01T20:31:37.364Z,24.38
2023-05-01T20:34:04.502Z,23.45
2023-05-01T20:36:31.394Z,22.63
2023-05-01T20:38:58.264Z,24.02
2023-05-01T20:41:26.023Z,24.23
2023-05-01T20:43:52.835Z,22.95
2023-05-01T20:46:20.068Z,24.80
2023-05-01T20:48:47.451Z,24.67
2023-05-01T20:51:16.017Z,24.80
2023-05-01T20:53:42.810Z,22.63
2023-05-01T20:56:09.637Z,21.40
2023-05-01T20:58:36.802Z,23.83
2023-05-01T21:01:05.333Z,21.55
2023-05-01T21:03:32.920Z,23.92
2023-05-01T21:06:00.731Z,22.48
2023-05-01T21:08:28.380Z,24.00
2023-05-01T21:10:55.522Z,21.90
2023-05-01T21:13:24.970Z,23.33
2023-05-01T21:15:53.064Z,21.98
2023-05-01T21:18:20.511Z,20.98
2023-05-01T21:20:48.788Z,21.33
2023-05-01T21:23:16.814Z,24.65
2023-05-01T21:25:43.902Z,23.85
2023-05-01T21:28:12.600Z,22.38
2023-05-01T21:30:39.633Z,24.95
2023-05-01T21:33:11.844Z,24.63
2023-05-01T21:38:08.713Z,23.83
2023-05-01T21:40:41.279Z,25.45
2023-05-01T21:43:08.771Z,26.60
2023-05-01T21:45:40.264Z,23.33
2023-05-01T21:48:14.512Z,25.13
2023-05-01T21:50:41.390Z,26.98
2023-05-01T21:53:08.286Z,25.10
2023-05-01T21:55:35.178Z,24.52
2023-05-01T21:58:02.417Z,23.70
2023-05-01T22:00:29.882Z,20.27
2023-05-01T22:02:56.974Z,20.13
2023-05-01T22:05:23.881Z,20.98
2023-05-01T22:07:54.298Z,20.23
2023-05-01T22:10:21.248Z,17.65
2023-05-01T22:12:49.602Z,17.15
2023-05-01T22:15:17.518Z,16.88
2023-05-01T22:17:45.135Z,15.50
2023-05-01T22:20:12.348Z,15.32
2023-05-01T22:22:40.764Z,15.95
2023-05-01T22:25:09.248Z,15.18
2023-05-01T22:27:36.638Z,15.95
2023-05-01T22:30:05.096Z,15.02
2023-05-01T22:32:32.096Z,14.45
2023-05-01T22:34:59.152Z,15.32
2023-05-01T22:37:26.376Z,14.40
2023-05-01T22:39:53.987Z,14.38
2023-05-01T22:42:21.355Z,14.98
2023-05-01T22:44:48.556Z,15.23
2023-05-01T22:47:15.861Z,16.05
2023-05-01T22:49:42.954Z,14.70
2023-05-01T22:52:09.800Z,15.25
2023-05-01T22:54:36.688Z,16.50
2023-05-01T22:57:03.732Z,14.30
2023-05-01T22:59:30.690Z,14.40
2023-05-01T23:01:57.582Z,14.40
2023-05-01T23:04:24.769Z,14.65
2023-05-01T23:06:51.757Z,14.25
2023-05-01T23:09:18.590Z,14.38
2023-05-01T23:11:48.372Z,12.73
2023-05-01T23:14:18.432Z,13.43
2023-05-01T23:16:45.233Z,13.50
2023-05-01T23:19:22.578Z,13.70
2023-05-01T23:21:50.594Z,11.70
2023-05-01T23:24:19.742Z,14.35
2023-05-01T23:26:46.966Z,12.85
2023-05-01T23:29:14.505Z,15.05
2023-05-01T23:31:47.615Z,13.60
2023-05-01T23:34:18.052Z,15.18
2023-05-01T23:36:47.751Z,16.02
2023-05-01T23:39:16.581Z,20.10
2023-05-01T23:41:43.987Z,18.85
2023-05-01T23:44:11.475Z,19.50
2023-05-01T23:46:39.729Z,19.65
2023-05-01T23:49:07.878Z,21.65
2023-05-01T23:51:35.184Z,20.00
2023-05-01T23:54:03.929Z,20.55
2023-05-01T23:56:31.068Z,21.92
2023-05-01T23:58:57.915Z,21.67
